sensor_id;sensor_type;location;lat;lon;timestamp;pressure;altitude;pressure_sealevel;temperature;humidity
65897;BME280;52677;50.898;10.854;2023-04-25T00:01:42;97706.78;;;4.87;100.00
65897;BME280;52677;50.898;10.854;2023-04-25T00:03:42;97702.91;;;4.88;100.00
65897;BME280;52677;50.898;10.854;2023-04-25T00:05:42;97706.09;;;4.90;100.00
65897;BME280;52677;50.898;10.854;2023-04-25T00:07:43;97700.69;;;4.93;100.00
65897;BME280;52677;50.898;10.854;2023-04-25T00:09:44;97701.41;;;4.90;100.00
65897;BME280;52677;50.898;10.854;2023-04-25T00:11:44;97702.91;;;4.88;100.00
65897;BME280;52677;50.898;10.854;2023-04-25T00:13:45;97703.34;;;4.90;100.00
65897;BME280;52677;50.898;10.854;2023-04-25T00:15:46;97697.41;;;4.88;100.00
65897;BME280;52677;50.898;10.854;2023-04-25T00:17:48;97708.47;;;4.91;100.00
65897;BME280;52677;50.898;10.854;2023-04-25T00:19:48;97703.00;;;4.91;100.00
65897;BME280;52677;50.898;10.854;2023-04-25T00:21:49;97699.34;;;4.87;100.00
65897;BME280;52677;50.898;10.854;2023-04-25T00:23:50;97697.78;;;4.86;100.00
65897;BME280;52677;50.898;10.854;2023-04-25T00:25:50;97699.44;;;4.91;100.00
65897;BME280;52677;50.898;10.854;2023-04-25T00:27:51;97696.28;;;4.89;100.00
65897;BME280;52677;50.898;10.854;2023-04-25T00:29:51;97696.19;;;4.85;100.00
65897;BME280;52677;50.898;10.854;2023-04-25T00:31:51;97694.59;;;4.84;100.00
65897;BME280;52677;50.898;10.854;2023-04-25T00:33:52;97694.97;;;4.83;100.00
65897;BME280;52677;50.898;10.854;2023-04-25T00:35:53;97693.75;;;4.80;100.00
65897;BME280;52677;50.898;10.854;2023-04-25T00:37:54;97689.41;;;4.79;100.00
65897;BME280;52677;50.898;10.854;2023-04-25T00:39:55;97692.13;;;4.79;100.00
65897;BME280;52677;50.898;10.854;2023-04-25T00:41:56;97698.19;;;4.69;100.00
65897;BME280;52677;50.898;10.854;2023-04-25T00:43:59;97694.50;;;4.61;100.00
65897;BME280;52677;50.898;10.854;2023-04-25T00:46:00;97695.94;;;4.55;100.00
65897;BME280;52677;50.898;10.854;2023-04-25T00:48:01;97691.16;;;4.52;100.00
65897;BME280;52677;50.898;10.854;2023-04-25T00:50:02;97691.09;;;4.48;100.00
65897;BME280;52677;50.898;10.854;2023-04-25T00:52:03;97691.00;;;4.45;100.00
65897;BME280;52677;50.898;10.854;2023-04-25T00:54:03;97695.31;;;4.46;100.00
65897;BME280;52677;50.898;10.854;2023-04-25T00:56:04;97688.34;;;4.48;100.00
65897;BME280;52677;50.898;10.854;2023-04-25T00:58:06;97689.22;;;4.53;100.00
65897;BME280;52677;50.898;10.854;2023-04-25T01:00:07;97694.78;;;4.56;100.00
65897;BME280;52677;50.898;10.854;2023-04-25T01:02:09;97692.38;;;4.55;100.00
65897;BME280;52677;50.898;10.854;2023-04-25T01:04:09;97700.53;;;4.51;100.00
65897;BME280;52677;50.898;10.854;2023-04-25T01:06:10;97689.84;;;4.46;100.00
65897;BME280;52677;50.898;10.854;2023-04-25T01:08:11;97690.13;;;4.41;100.00
65897;BME280;52677;50.898;10.854;2023-04-25T01:10:11;97699.06;;;4.38;100.00
65897;BME280;52677;50.898;10.854;2023-04-25T01:12:12;97692.09;;;4.40;100.00
65897;BME280;52677;50.898;10.854;2023-04-25T01:14:13;97693.25;;;4.39;100.00
65897;BME280;52677;50.898;10.854;2023-04-25T01:16:13;97695.28;;;4.27;100.00
65897;BME280;52677;50.898;10.854;2023-04-25T01:18:13;97701.84;;;4.22;100.00
65897;BME280;52677;50.898;10.854;2023-04-25T01:20:14;97704.41;;;4.15;100.00
65897;BME280;52677;50.898;10.854;2023-04-25T01:22:15;97696.19;;;4.15;100.00
65897;BME280;52677;50.898;10.854;2023-04-25T01:24:15;97694.94;;;4.12;100.00
65897;BME280;52677;50.898;10.854;2023-04-25T01:26:16;97697.66;;;4.12;100.00
65897;BME280;52677;50.898;10.854;2023-04-25T01:28:17;97695.66;;;4.09;100.00
65897;BME280;52677;50.898;10.854;2023-04-25T01:30:17;97699.44;;;4.05;100.00
65897;BME280;52677;50.898;10.854;2023-04-25T01:32:19;97698.31;;;3.90;100.00
65897;BME280;52677;50.898;10.854;2023-04-25T01:34:20;97704.75;;;3.82;100.00
65897;BME280;52677;50.898;10.854;2023-04-25T01:36:21;97696.44;;;3.78;100.00
65897;BME280;52677;50.898;10.854;2023-04-25T01:38:22;97688.41;;;3.70;100.00
65897;BME280;52677;50.898;10.854;2023-04-25T01:40:24;97689.13;;;3.66;100.00
65897;BME280;52677;50.898;10.854;2023-04-25T01:42:24;97693.50;;;3.71;100.00
65897;BME280;52677;50.898;10.854;2023-04-25T01:44:25;97698.75;;;3.76;100.00
65897;BME280;52677;50.898;10.854;2023-04-25T01:46:27;97700.88;;;3.83;100.00
65897;BME280;52677;50.898;10.854;2023-04-25T01:48:27;97698.63;;;3.88;100.00
65897;BME280;52677;50.898;10.854;2023-04-25T01:50:28;97700.41;;;3.97;100.00
65897;BME280;52677;50.898;10.854;2023-04-25T01:52:29;97700.16;;;4.02;100.00
65897;BME280;52677;50.898;10.854;2023-04-25T01:54:29;97698.94;;;3.99;100.00
65897;BME280;52677;50.898;10.854;2023-04-25T01:56:31;97700.69;;;3.91;100.00
65897;BME280;52677;50.898;10.854;2023-04-25T01:58:32;97695.47;;;3.86;100.00
65897;BME280;52677;50.898;10.854;2023-04-25T02:00:32;97697.94;;;3.76;100.00
65897;BME280;52677;50.898;10.854;2023-04-25T02:02:32;97702.34;;;3.64;100.00
65897;BME280;52677;50.898;10.854;2023-04-25T02:04:32;97706.38;;;3.55;100.00
65897;BME280;52677;50.898;10.854;2023-04-25T02:06:33;97707.34;;;3.47;100.00
65897;BME280;52677;50.898;10.854;2023-04-25T02:08:33;97707.59;;;3.42;100.00
65897;BME280;52677;50.898;10.854;2023-04-25T02:10:34;97706.34;;;3.39;100.00
65897;BME280;52677;50.898;10.854;2023-04-25T02:12:35;97698.13;;;3.39;100.00
65897;BME280;52677;50.898;10.854;2023-04-25T02:14:35;97700.19;;;3.42;100.00
65897;BME280;52677;50.898;10.854;2023-04-25T02:16:36;97702.13;;;3.42;100.00
65897;BME280;52677;50.898;10.854;2023-04-25T02:18:36;97698.81;;;3.48;100.00
65897;BME280;52677;50.898;10.854;2023-04-25T02:20:37;97706.22;;;3.48;100.00
65897;BME280;52677;50.898;10.854;2023-04-25T02:22:37;97704.44;;;3.55;100.00
65897;BME280;52677;50.898;10.854;2023-04-25T02:24:38;97709.66;;;3.60;100.00
65897;BME280;52677;50.898;10.854;2023-04-25T02:26:39;97707.16;;;3.55;100.00
65897;BME280;52677;50.898;10.854;2023-04-25T02:28:39;97711.06;;;3.54;100.00
65897;BME280;52677;50.898;10.854;2023-04-25T02:30:40;97712.13;;;3.50;100.00
65897;BME280;52677;50.898;10.854;2023-04-25T02:32:40;97708.13;;;3.47;100.00
65897;BME280;52677;50.898;10.854;2023-04-25T02:34:41;97707.69;;;3.45;100.00
65897;BME280;52677;50.898;10.854;2023-04-25T02:36:41;97703.38;;;3.44;100.00
65897;BME280;52677;50.898;10.854;2023-04-25T02:38:42;97703.28;;;3.41;100.00
65897;BME280;52677;50.898;10.854;2023-04-25T02:40:42;97706.69;;;3.37;100.00
65897;BME280;52677;50.898;10.854;2023-04-25T02:42:42;97710.22;;;3.38;100.00
65897;BME280;52677;50.898;10.854;2023-04-25T02:44:43;97708.63;;;3.37;100.00
65897;BME280;52677;50.898;10.854;2023-04-25T02:46:43;97710.84;;;3.31;100.00
65897;BME280;52677;50.898;10.854;2023-04-25T02:48:43;97700.72;;;3.32;100.00
65897;BME280;52677;50.898;10.854;2023-04-25T02:50:44;97705.38;;;3.31;100.00
65897;BME280;52677;50.898;10.854;2023-04-25T02:52:45;97706.41;;;3.27;100.00
65897;BME280;52677;50.898;10.854;2023-04-25T02:54:46;97704.03;;;3.25;100.00
65897;BME280;52677;50.898;10.854;2023-04-25T02:56:46;97699.25;;;3.22;100.00
65897;BME280;52677;50.898;10.854;2023-04-25T02:58:46;97704.13;;;3.29;100.00
65897;BME280;52677;50.898;10.854;2023-04-25T03:00:46;97699.19;;;3.34;100.00
65897;BME280;52677;50.898;10.854;2023-04-25T03:02:47;97703.97;;;3.37;100.00
65897;BME280;52677;50.898;10.854;2023-04-25T03:04:47;97696.75;;;3.45;100.00
65897;BME280;52677;50.898;10.854;2023-04-25T03:06:48;97691.03;;;3.50;100.00
65897;BME280;52677;50.898;10.854;2023-04-25T03:08:48;97695.00;;;3.53;100.00
65897;BME280;52677;50.898;10.854;2023-04-25T03:10:48;97693.59;;;3.59;100.00
65897;BME280;52677;50.898;10.854;2023-04-25T03:12:51;97694.75;;;3.58;100.00
65897;BME280;52677;50.898;10.854;2023-04-25T03:14:51;97691.31;;;3.61;100.00
65897;BME280;52677;50.898;10.854;2023-04-25T03:16:52;97701.09;;;3.62;100.00
65897;BME280;52677;50.898;10.854;2023-04-25T03:18:52;97701.72;;;3.71;100.00
65897;BME280;52677;50.898;10.854;2023-04-25T03:20:52;97694.59;;;3.82;100.00
65897;BME280;52677;50.898;10.854;2023-04-25T03:22:53;97702.63;;;3.91;100.00
65897;BME280;52677;50.898;10.854;2023-04-25T03:24:53;97704.47;;;4.03;100.00
65897;BME280;52677;50.898;10.854;2023-04-25T03:26:54;97705.00;;;4.08;100.00
65897;BME280;52677;50.898;10.854;2023-04-25T03:28:54;97706.78;;;4.16;100.00
65897;BME280;52677;50.898;10.854;2023-04-25T03:30:54;97695.09;;;4.19;100.00
65897;BME280;52677;50.898;10.854;2023-04-25T03:32:55;97700.03;;;4.30;100.00
65897;BME280;52677;50.898;10.854;2023-04-25T03:34:55;97700.13;;;4.33;100.00
65897;BME280;52677;50.898;10.854;2023-04-25T03:36:55;97697.94;;;4.39;100.00
65897;BME280;52677;50.898;10.854;2023-04-25T03:38:56;97699.84;;;4.38;100.00
65897;BME280;52677;50.898;10.854;2023-04-25T03:40:56;97695.44;;;4.34;100.00
65897;BME280;52677;50.898;10.854;2023-04-25T03:42:56;97692.44;;;4.39;100.00
65897;BME280;52677;50.898;10.854;2023-04-25T03:44:57;97691.63;;;4.38;100.00
65897;BME280;52677;50.898;10.854;2023-04-25T03:46:57;97690.56;;;4.43;100.00
65897;BME280;52677;50.898;10.854;2023-04-25T03:48:57;97696.84;;;4.43;100.00
65897;BME280;52677;50.898;10.854;2023-04-25T03:50:59;97693.50;;;4.34;100.00
65897;BME280;52677;50.898;10.854;2023-04-25T03:52:59;97698.44;;;4.29;100.00
65897;BME280;52677;50.898;10.854;2023-04-25T03:55:00;97702.97;;;4.21;100.00
65897;BME280;52677;50.898;10.854;2023-04-25T03:57:00;97701.72;;;4.18;100.00
65897;BME280;52677;50.898;10.854;2023-04-25T03:59:00;97708.91;;;4.23;100.00
65897;BME280;52677;50.898;10.854;2023-04-25T04:01:01;97710.19;;;4.29;100.00
65897;BME280;52677;50.898;10.854;2023-04-25T04:03:03;97714.88;;;4.29;100.00
65897;BME280;52677;50.898;10.854;2023-04-25T04:05:04;97714.81;;;4.25;100.00
65897;BME280;52677;50.898;10.854;2023-04-25T04:07:04;97715.00;;;4.16;100.00
65897;BME280;52677;50.898;10.854;2023-04-25T04:09:05;97714.03;;;4.09;100.00
65897;BME280;52677;50.898;10.854;2023-04-25T04:11:08;97716.56;;;4.02;100.00
65897;BME280;52677;50.898;10.854;2023-04-25T04:13:08;97712.78;;;3.90;100.00
65897;BME280;52677;50.898;10.854;2023-04-25T04:15:09;97720.38;;;3.81;100.00
65897;BME280;52677;50.898;10.854;2023-04-25T04:17:09;97723.72;;;3.75;100.00
65897;BME280;52677;50.898;10.854;2023-04-25T04:19:10;97710.66;;;3.68;100.00
65897;BME280;52677;50.898;10.854;2023-04-25T04:21:10;97712.22;;;3.69;100.00
65897;BME280;52677;50.898;10.854;2023-04-25T04:23:11;97703.59;;;3.67;100.00
65897;BME280;52677;50.898;10.854;2023-04-25T04:25:11;97709.06;;;3.67;100.00
65897;BME280;52677;50.898;10.854;2023-04-25T04:27:13;97709.06;;;3.67;100.00
65897;BME280;52677;50.898;10.854;2023-04-25T04:29:13;97715.69;;;3.66;100.00
65897;BME280;52677;50.898;10.854;2023-04-25T04:31:21;97722.97;;;3.62;100.00
65897;BME280;52677;50.898;10.854;2023-04-25T04:33:22;97725.47;;;3.67;100.00
65897;BME280;52677;50.898;10.854;2023-04-25T04:35:23;97718.84;;;3.68;100.00
65897;BME280;52677;50.898;10.854;2023-04-25T04:37:24;97720.88;;;3.71;100.00
65897;BME280;52677;50.898;10.854;2023-04-25T04:39:24;97726.81;;;3.73;100.00
65897;BME280;52677;50.898;10.854;2023-04-25T04:41:24;97716.56;;;3.70;100.00
65897;BME280;52677;50.898;10.854;2023-04-25T04:43:25;97728.03;;;3.76;100.00
65897;BME280;52677;50.898;10.854;2023-04-25T04:45:25;97720.53;;;3.73;100.00
65897;BME280;52677;50.898;10.854;2023-04-25T04:47:27;97714.72;;;3.74;100.00
65897;BME280;52677;50.898;10.854;2023-04-25T04:49:31;97719.91;;;3.79;100.00
65897;BME280;52677;50.898;10.854;2023-04-25T04:51:31;97709.88;;;3.83;100.00
65897;BME280;52677;50.898;10.854;2023-04-25T04:53:32;97708.00;;;3.87;100.00
65897;BME280;52677;50.898;10.854;2023-04-25T04:55:32;97704.94;;;3.89;100.00
65897;BME280;52677;50.898;10.854;2023-04-25T04:57:32;97722.59;;;3.91;100.00
65897;BME280;52677;50.898;10.854;2023-04-25T04:59:33;97717.47;;;3.90;100.00
65897;BME280;52677;50.898;10.854;2023-04-25T05:01:33;97724.88;;;3.89;100.00
65897;BME280;52677;50.898;10.854;2023-04-25T05:03:37;97729.72;;;3.96;100.00
65897;BME280;52677;50.898;10.854;2023-04-25T05:05:37;97736.34;;;3.95;100.00
65897;BME280;52677;50.898;10.854;2023-04-25T05:07:40;97735.19;;;3.96;100.00
65897;BME280;52677;50.898;10.854;2023-04-25T05:09:40;97741.56;;;4.00;100.00
65897;BME280;52677;50.898;10.854;2023-04-25T05:11:40;97744.03;;;4.05;100.00
65897;BME280;52677;50.898;10.854;2023-04-25T05:13:41;97743.22;;;4.05;100.00
65897;BME280;52677;50.898;10.854;2023-04-25T05:15:41;97742.97;;;4.10;100.00
65897;BME280;52677;50.898;10.854;2023-04-25T05:17:41;97754.53;;;4.19;100.00
65897;BME280;52677;50.898;10.854;2023-04-25T05:19:42;97751.13;;;4.22;100.00
65897;BME280;52677;50.898;10.854;2023-04-25T05:21:42;97762.69;;;4.31;100.00
65897;BME280;52677;50.898;10.854;2023-04-25T05:23:43;97757.03;;;4.40;100.00
65897;BME280;52677;50.898;10.854;2023-04-25T05:25:43;97758.13;;;4.55;100.00
65897;BME280;52677;50.898;10.854;2023-04-25T05:27:43;97753.47;;;4.55;100.00
65897;BME280;52677;50.898;10.854;2023-04-25T05:29:44;97769.25;;;4.62;100.00
65897;BME280;52677;50.898;10.854;2023-04-25T05:31:45;97763.34;;;4.60;100.00
65897;BME280;52677;50.898;10.854;2023-04-25T05:33:47;97762.56;;;4.59;100.00
65897;BME280;52677;50.898;10.854;2023-04-25T05:35:48;97764.94;;;4.61;100.00
65897;BME280;52677;50.898;10.854;2023-04-25T05:37:48;97765.84;;;4.65;100.00
65897;BME280;52677;50.898;10.854;2023-04-25T05:39:48;97762.56;;;4.59;100.00
65897;BME280;52677;50.898;10.854;2023-04-25T05:41:49;97762.28;;;4.64;100.00
65897;BME280;52677;50.898;10.854;2023-04-25T05:43:49;97754.94;;;4.68;100.00
65897;BME280;52677;50.898;10.854;2023-04-25T05:45:50;97762.53;;;4.75;100.00
65897;BME280;52677;50.898;10.854;2023-04-25T05:47:50;97771.78;;;4.86;100.00
65897;BME280;52677;50.898;10.854;2023-04-25T05:49:50;97769.56;;;4.92;100.00
65897;BME280;52677;50.898;10.854;2023-04-25T05:51:51;97765.84;;;5.00;100.00
65897;BME280;52677;50.898;10.854;2023-04-25T05:53:51;97772.16;;;5.04;100.00
65897;BME280;52677;50.898;10.854;2023-04-25T05:55:51;97778.59;;;5.12;100.00
65897;BME280;52677;50.898;10.854;2023-04-25T05:57:52;97774.22;;;5.26;100.00
65897;BME280;52677;50.898;10.854;2023-04-25T05:59:52;97776.09;;;5.42;100.00
65897;BME280;52677;50.898;10.854;2023-04-25T06:01:53;97780.59;;;5.50;100.00
65897;BME280;52677;50.898;10.854;2023-04-25T06:03:53;97795.25;;;5.38;100.00
65897;BME280;52677;50.898;10.854;2023-04-25T06:05:53;97789.88;;;5.26;100.00
65897;BME280;52677;50.898;10.854;2023-04-25T06:07:54;97788.25;;;5.21;100.00
65897;BME280;52677;50.898;10.854;2023-04-25T06:09:54;97790.56;;;5.39;100.00
65897;BME280;52677;50.898;10.854;2023-04-25T06:11:54;97798.00;;;5.38;100.00
65897;BME280;52677;50.898;10.854;2023-04-25T06:13:55;97791.25;;;5.35;100.00
65897;BME280;52677;50.898;10.854;2023-04-25T06:15:55;97800.75;;;5.38;100.00
65897;BME280;52677;50.898;10.854;2023-04-25T06:17:55;97793.31;;;5.39;100.00
65897;BME280;52677;50.898;10.854;2023-04-25T06:19:56;97797.31;;;5.25;100.00
65897;BME280;52677;50.898;10.854;2023-04-25T06:21:56;97789.09;;;5.25;100.00
65897;BME280;52677;50.898;10.854;2023-04-25T06:23:56;97796.75;;;5.35;100.00
65897;BME280;52677;50.898;10.854;2023-04-25T06:25:57;97792.50;;;5.38;100.00
65897;BME280;52677;50.898;10.854;2023-04-25T06:27:57;97791.00;;;5.41;100.00
65897;BME280;52677;50.898;10.854;2023-04-25T06:29:57;97796.25;;;5.49;100.00
65897;BME280;52677;50.898;10.854;2023-04-25T06:31:57;97797.56;;;5.55;100.00
65897;BME280;52677;50.898;10.854;2023-04-25T06:33:58;97801.16;;;5.59;100.00
65897;BME280;52677;50.898;10.854;2023-04-25T06:35:58;97802.31;;;5.58;100.00
65897;BME280;52677;50.898;10.854;2023-04-25T06:37:59;97798.00;;;5.57;100.00
65897;BME280;52677;50.898;10.854;2023-04-25T06:39:59;97810.69;;;5.66;100.00
65897;BME280;52677;50.898;10.854;2023-04-25T06:42:00;97806.84;;;5.70;100.00
65897;BME280;52677;50.898;10.854;2023-04-25T06:44:00;97809.75;;;5.58;100.00
65897;BME280;52677;50.898;10.854;2023-04-25T06:46:01;97802.25;;;5.55;100.00
65897;BME280;52677;50.898;10.854;2023-04-25T06:48:01;97804.28;;;5.58;100.00
65897;BME280;52677;50.898;10.854;2023-04-25T06:50:02;97802.91;;;5.68;100.00
65897;BME280;52677;50.898;10.854;2023-04-25T06:52:02;97806.16;;;5.73;100.00
65897;BME280;52677;50.898;10.854;2023-04-25T06:54:03;97815.75;;;5.63;100.00
65897;BME280;52677;50.898;10.854;2023-04-25T06:56:05;97812.63;;;5.84;100.00
65897;BME280;52677;50.898;10.854;2023-04-25T06:58:06;97809.25;;;5.91;100.00
65897;BME280;52677;50.898;10.854;2023-04-25T07:00:07;97813.59;;;5.92;100.00
65897;BME280;52677;50.898;10.854;2023-04-25T07:02:11;97812.63;;;6.04;100.00
65897;BME280;52677;50.898;10.854;2023-04-25T07:04:11;97815.16;;;6.12;100.00
65897;BME280;52677;50.898;10.854;2023-04-25T07:06:11;97822.28;;;6.17;100.00
65897;BME280;52677;50.898;10.854;2023-04-25T07:08:12;97818.00;;;6.19;100.00
65897;BME280;52677;50.898;10.854;2023-04-25T07:10:12;97821.25;;;6.25;100.00
65897;BME280;52677;50.898;10.854;2023-04-25T07:12:12;97824.44;;;6.27;100.00
65897;BME280;52677;50.898;10.854;2023-04-25T07:14:13;97823.97;;;6.22;100.00
65897;BME280;52677;50.898;10.854;2023-04-25T07:16:13;97829.75;;;6.16;100.00
65897;BME280;52677;50.898;10.854;2023-04-25T07:18:13;97821.00;;;6.11;100.00
65897;BME280;52677;50.898;10.854;2023-04-25T07:20:14;97822.94;;;6.10;100.00
65897;BME280;52677;50.898;10.854;2023-04-25T07:22:14;97822.94;;;6.10;100.00
65897;BME280;52677;50.898;10.854;2023-04-25T07:24:14;97823.47;;;6.16;100.00
65897;BME280;52677;50.898;10.854;2023-04-25T07:26:15;97825.94;;;6.02;100.00
65897;BME280;52677;50.898;10.854;2023-04-25T07:28:15;97824.91;;;6.10;100.00
65897;BME280;52677;50.898;10.854;2023-04-25T07:30:16;97824.53;;;6.11;100.00
65897;BME280;52677;50.898;10.854;2023-04-25T07:32:16;97827.84;;;5.98;100.00
65897;BME280;52677;50.898;10.854;2023-04-25T07:34:16;97836.50;;;6.00;100.00
65897;BME280;52677;50.898;10.854;2023-04-25T07:36:17;97832.44;;;6.13;100.00
65897;BME280;52677;50.898;10.854;2023-04-25T07:38:17;97827.78;;;6.17;100.00
65897;BME280;52677;50.898;10.854;2023-04-25T07:40:17;97829.56;;;6.29;100.00
65897;BME280;52677;50.898;10.854;2023-04-25T07:42:18;97838.53;;;6.26;100.00
65897;BME280;52677;50.898;10.854;2023-04-25T07:44:18;97834.75;;;6.34;100.00
65897;BME280;52677;50.898;10.854;2023-04-25T07:46:18;97827.56;;;6.26;100.00
65897;BME280;52677;50.898;10.854;2023-04-25T07:48:19;97831.09;;;6.26;100.00
65897;BME280;52677;50.898;10.854;2023-04-25T07:50:19;97839.84;;;6.32;100.00
65897;BME280;52677;50.898;10.854;2023-04-25T07:52:20;97846.03;;;6.29;100.00
65897;BME280;52677;50.898;10.854;2023-04-25T07:54:20;97853.25;;;6.37;100.00
65897;BME280;52677;50.898;10.854;2023-04-25T07:56:21;97848.50;;;6.34;100.00
65897;BME280;52677;50.898;10.854;2023-04-25T07:58:21;97857.78;;;6.26;100.00
65897;BME280;52677;50.898;10.854;2023-04-25T08:00:22;97853.06;;;6.26;100.00
65897;BME280;52677;50.898;10.854;2023-04-25T08:02:22;97855.56;;;6.35;100.00
65897;BME280;52677;50.898;10.854;2023-04-25T08:04:23;97859.78;;;6.29;100.00
65897;BME280;52677;50.898;10.854;2023-04-25T08:06:23;97862.19;;;6.30;100.00
65897;BME280;52677;50.898;10.854;2023-04-25T08:08:24;97869.41;;;6.19;100.00
65897;BME280;52677;50.898;10.854;2023-04-25T08:10:24;97873.31;;;6.18;100.00
65897;BME280;52677;50.898;10.854;2023-04-25T08:12:24;97881.66;;;6.02;100.00
65897;BME280;52677;50.898;10.854;2023-04-25T08:14:25;97875.72;;;6.00;100.00
65897;BME280;52677;50.898;10.854;2023-04-25T08:16:25;97876.16;;;6.02;100.00
65897;BME280;52677;50.898;10.854;2023-04-25T08:18:25;97888.25;;;5.98;100.00
65897;BME280;52677;50.898;10.854;2023-04-25T08:20:26;97893.41;;;6.03;100.00
65897;BME280;52677;50.898;10.854;2023-04-25T08:22:28;97889.50;;;6.04;100.00
65897;BME280;52677;50.898;10.854;2023-04-25T08:24:29;97897.75;;;6.04;100.00
65897;BME280;52677;50.898;10.854;2023-04-25T08:26:29;97901.59;;;5.99;100.00
65897;BME280;52677;50.898;10.854;2023-04-25T08:28:30;97897.38;;;5.86;100.00
65897;BME280;52677;50.898;10.854;2023-04-25T08:30:30;97912.06;;;5.94;100.00
65897;BME280;52677;50.898;10.854;2023-04-25T08:32:31;97906.50;;;5.90;100.00
65897;BME280;52677;50.898;10.854;2023-04-25T08:34:31;97907.66;;;5.89;100.00
65897;BME280;52677;50.898;10.854;2023-04-25T08:36:32;97908.94;;;5.76;100.00
65897;BME280;52677;50.898;10.854;2023-04-25T08:38:32;97905.69;;;5.89;100.00
65897;BME280;52677;50.898;10.854;2023-04-25T08:40:35;97917.81;;;6.04;100.00
65897;BME280;52677;50.898;10.854;2023-04-25T08:42:37;97916.28;;;6.07;100.00
65897;BME280;52677;50.898;10.854;2023-04-25T08:44:38;97923.56;;;6.18;100.00
65897;BME280;52677;50.898;10.854;2023-04-25T08:46:39;97924.81;;;6.21;100.00
65897;BME280;52677;50.898;10.854;2023-04-25T08:48:42;97924.44;;;6.23;100.00
65897;BME280;52677;50.898;10.854;2023-04-25T08:50:50;97924.88;;;6.25;100.00
65897;BME280;52677;50.898;10.854;2023-04-25T08:52:53;97933.84;;;6.22;100.00
65897;BME280;52677;50.898;10.854;2023-04-25T08:54:54;97937.94;;;6.12;100.00
65897;BME280;52677;50.898;10.854;2023-04-25T08:56:55;97936.44;;;6.14;100.00
65897;BME280;52677;50.898;10.854;2023-04-25T08:58:57;97946.50;;;6.07;100.00
65897;BME280;52677;50.898;10.854;2023-04-25T09:00:58;97947.16;;;5.84;100.00
65897;BME280;52677;50.898;10.854;2023-04-25T09:03:00;97948.00;;;6.04;100.00
65897;BME280;52677;50.898;10.854;2023-04-25T09:05:00;97952.28;;;6.21;100.00
65897;BME280;52677;50.898;10.854;2023-04-25T09:07:00;97954.72;;;6.26;100.00
65897;BME280;52677;50.898;10.854;2023-04-25T09:09:05;97957.81;;;6.25;100.00
65897;BME280;52677;50.898;10.854;2023-04-25T09:11:06;97964.31;;;6.36;100.00
65897;BME280;52677;50.898;10.854;2023-04-25T09:13:14;97967.16;;;6.39;100.00
65897;BME280;52677;50.898;10.854;2023-04-25T09:15:15;97972.00;;;6.46;100.00
65897;BME280;52677;50.898;10.854;2023-04-25T09:17:15;97972.94;;;6.34;100.00
65897;BME280;52677;50.898;10.854;2023-04-25T09:19:22;97974.09;;;6.14;100.00
65897;BME280;52677;50.898;10.854;2023-04-25T09:21:22;97973.75;;;6.15;100.00
65897;BME280;52677;50.898;10.854;2023-04-25T09:23:23;97969.97;;;6.24;100.00
65897;BME280;52677;50.898;10.854;2023-04-25T09:25:24;97983.28;;;6.22;100.00
65897;BME280;52677;50.898;10.854;2023-04-25T09:27:25;98000.31;;;5.92;100.00
65897;BME280;52677;50.898;10.854;2023-04-25T09:29:34;97988.59;;;5.95;100.00
65897;BME280;52677;50.898;10.854;2023-04-25T09:31:34;97995.25;;;5.94;100.00
65897;BME280;52677;50.898;10.854;2023-04-25T09:33:35;98005.94;;;5.99;100.00
65897;BME280;52677;50.898;10.854;2023-04-25T09:35:41;97996.34;;;5.74;100.00
65897;BME280;52677;50.898;10.854;2023-04-25T09:37:42;98002.25;;;5.91;100.00
65897;BME280;52677;50.898;10.854;2023-04-25T09:39:44;98007.75;;;5.91;100.00
65897;BME280;52677;50.898;10.854;2023-04-25T09:41:44;98004.53;;;6.05;100.00
65897;BME280;52677;50.898;10.854;2023-04-25T09:43:45;98002.22;;;6.27;100.00
65897;BME280;52677;50.898;10.854;2023-04-25T09:45:47;98006.63;;;6.31;100.00
65897;BME280;52677;50.898;10.854;2023-04-25T09:47:47;97996.22;;;6.40;100.00
65897;BME280;52677;50.898;10.854;2023-04-25T09:49:47;98001.44;;;6.45;100.00
65897;BME280;52677;50.898;10.854;2023-04-25T09:51:57;98005.03;;;6.50;100.00
65897;BME280;52677;50.898;10.854;2023-04-25T09:53:58;97999.34;;;6.39;100.00
65897;BME280;52677;50.898;10.854;2023-04-25T09:56:00;98000.47;;;6.57;100.00
65897;BME280;52677;50.898;10.854;2023-04-25T09:58:04;98007.34;;;6.67;100.00
65897;BME280;52677;50.898;10.854;2023-04-25T10:00:06;98009.09;;;6.56;100.00
65897;BME280;52677;50.898;10.854;2023-04-25T10:02:11;98003.75;;;6.63;100.00
65897;BME280;52677;50.898;10.854;2023-04-25T10:04:12;98014.06;;;6.69;100.00
65897;BME280;52677;50.898;10.854;2023-04-25T10:06:18;98014.41;;;6.87;100.00
65897;BME280;52677;50.898;10.854;2023-04-25T10:08:19;98008.59;;;6.92;100.00
65897;BME280;52677;50.898;10.854;2023-04-25T10:10:20;98008.06;;;7.06;100.00
65897;BME280;52677;50.898;10.854;2023-04-25T10:12:26;98002.97;;;6.85;100.00
65897;BME280;52677;50.898;10.854;2023-04-25T10:14:26;98008.91;;;6.68;100.00
65897;BME280;52677;50.898;10.854;2023-04-25T10:16:28;98018.56;;;6.58;100.00
65897;BME280;52677;50.898;10.854;2023-04-25T10:18:30;98030.88;;;5.90;100.00
65897;BME280;52677;50.898;10.854;2023-04-25T10:20:30;98031.72;;;5.79;100.00
65897;BME280;52677;50.898;10.854;2023-04-25T10:22:37;98036.63;;;5.70;100.00
65897;BME280;52677;50.898;10.854;2023-04-25T10:24:39;98044.34;;;5.48;100.00
65897;BME280;52677;50.898;10.854;2023-04-25T10:26:40;98039.41;;;5.38;100.00
65897;BME280;52677;50.898;10.854;2023-04-25T10:29:07;98045.06;;;5.14;100.00
65897;BME280;52677;50.898;10.854;2023-04-25T10:31:08;98050.97;;;5.00;100.00
65897;BME280;52677;50.898;10.854;2023-04-25T10:33:17;98051.13;;;4.91;100.00